This is the latest recevied weather packets stored in our database for station/object YO8PIC-12. If no packets are shown the sender has not sent any weather packets the latest 10 day(s).
| Time | Temp. | Humidity | Pressure | Rain* | Wind** | Luminosity | Snow |
|---|---|---|---|---|---|---|---|
| 1787764754 | 22.22° C | 62% | 1024.9 hPa | - | - | - | - |
| 1787764153 | 21.67° C | 63% | 1024.9 hPa | - | - | - | - |
| 1787763554 | 22.22° C | 62% | 1024.9 hPa | - | - | - | - |
| 1787762954 | 22.22° C | 62% | 1024.7 hPa | - | - | - | - |
| 1787762354 | 22.22° C | 63% | 1024.4 hPa | - | - | - | - |
| 1787761754 | 22.22° C | 63% | 1024.3 hPa | - | - | - | - |
| 1787761153 | 22.22° C | 63% | 1024.2 hPa | - | - | - | - |
| 1787760553 | 22.78° C | 61% | 1024.1 hPa | - | - | - | - |
| 1787759953 | 22.78° C | 62% | 1023.9 hPa | - | - | - | - |
| 1787759353 | 22.78° C | 61% | 1023.8 hPa | - | - | - | - |
| 1787758753 | 23.33° C | 60% | 1023.7 hPa | - | - | - | - |
| 1787758153 | 23.33° C | 59% | 1023.7 hPa | - | - | - | - |
| 1787757553 | 23.33° C | 59% | 1023.6 hPa | - | - | - | - |
| 1787756953 | 24.44° C | 55% | 1023.5 hPa | - | - | - | - |
| 1787756353 | 26.67° C | 51% | 1023.4 hPa | - | - | - | - |
| 1787755753 | 27.78° C | 47% | 1023.4 hPa | - | - | - | - |
| 1787755154 | 29.44° C | 46% | 1023.1 hPa | - | - | - | - |
| 1787754553 | 31.11° C | 44% | 1023 hPa | - | - | - | - |
| 1787753953 | 27.78° C | 49% | 1023.3 hPa | - | - | - | - |
| 1787753353 | 30° C | 47% | 1023.2 hPa | - | - | - | - |
| 1787752753 | 28.33° C | 53% | 1023.5 hPa | - | - | - | - |
| 1787752153 | 26.67° C | 57% | 1023.3 hPa | - | - | - | - |
| 1787751553 | 25.56° C | 59% | 1023.5 hPa | - | - | - | - |
| 1787750953 | 25.56° C | 60% | 1023.6 hPa | - | - | - | - |
| 1787750353 | 25.56° C | 59% | 1023.6 hPa | - | - | - | - |
* Rain since midnight (hover to see other rain measurements)
** Current wind speed in m/s (hover to see current wind gust speed)